Montrose, CO (81403)

10:11 AM MST on February 07, 2016 (GMT -0700)
Woodland Ponds | | Change Station
CLOSE
Current Station
Personal Weather Station
Location: Montrose, CO
Elevation: 5712 ft
Nearby Weather Stations

Elev 5712 ft 38.50 °N, 107.91 °W | Updated 10 minutes ago

Clear
Clear
27.5 °F
Feels Like 28 °F
N
2.7
Wind Variable Wind from SE

Today
High -- | Low -- °F
--% Chance of Precip.
Yesterday
High -- | Low -- °F
Precip. -- in
Pressure 30.67 in
Visibility 10.0 miles
Clouds Clear
Windchill 28 °F
Dew Point 15 °F
Humidity 59%
Rainfall 0.00 in
Snow Depth Not available.
7:11 AM 5:40 PM
Waning Crescent, 1% visible
METAR KMTJ 071653Z AUTO 11003KT 10SM CLR M06/M11 A3055 RMK AO2 SLP386 T10561106
Pressure 30.67 in
Visibility 10.0 miles
Clouds Clear
Windchill 28 °F
Dew Point 15 °F
Humidity 59%
Rainfall 0.00 in
Snow Depth Not available.
7:11 AM 5:40 PM
Waning Crescent, 1% visible
METAR KMTJ 071653Z AUTO 11003KT 10SM CLR M06/M11 A3055 RMK AO2 SLP386 T10561106

10-Day Weather Forecast

Almanac

Astronomy

Feb. 07, 2016 Rise Set
Actual Time
Civil Twilight
Nautical Twilight
Astronomical Twilight
Moon
Length of Visible Light
Length of Day
Tomorrow will be .
, % of the Moon is Illuminated

Today's Extremes

State Highs State Lows

Community

WunderPhotos

Upload Photos

1,891,236 photos uploaded!

WunderBlog® & News

Nearby

Air Quality

  Air Quality AQ Index Pollutant
Not available.

Snow Depth

Station Depth Elevation

Earthquake Activity

City Distance Mag. Time & Date
Minimum magnitude displayed is 2.5.

Coastal Water Temperatures

Place Temperature

Stations

Nearby Weather Stations

Station Location Temp. Windchill Dew Point Humidity Wind Precip. Elev Updated Type
                   

Watches & Warnings

There are currently no watches in effect.